Terminal Aerodrome Forecast
Issued by NWS

Home | Current Version | Previous Version | Text Only | Print | Product List | Glossary On
Versions: 1 2 3 4 5 6 7 8 9 10 11 12 13 14 15 16 17 18 19 20 21 22 23 24 25 26
000
FTUS43 KGRB 161129
TAFATW
TAF
KATW 161129Z 1612/1712 VRB03KT P6SM BKN150
      TEMPO 1612/1615 5SM BR
     FM161900 12003KT 6SM -FZRASNPL SCT035 OVC060
     FM162100 10004KT 4SM -FZRAPL BR OVC030
     FM162200 09004KT 2SM -FZRAPL BR OVC013
     FM170100 08006KT 1 1/2SM -FZRAPL BR OVC006
     FM170600 06007G17KT 1 1/2SM -FZRA BR OVC005=

USA.gov is the U.S. government's official web portal to all federal, state and local government web resources and services.